createdAt,value
2018-06-03T00:01:09.769Z,22.30
2018-06-03T00:03:38.582Z,22.20
2018-06-03T00:06:07.346Z,22.30
2018-06-03T00:08:35.414Z,22.20
2018-06-03T00:11:04.950Z,22.20
2018-06-03T00:13:33.712Z,22.30
2018-06-03T00:16:01.729Z,22.20
2018-06-03T00:18:29.788Z,22.30
2018-06-03T00:21:09.679Z,22.20
2018-06-03T00:23:38.523Z,22.20
2018-06-03T00:26:06.810Z,22.20
2018-06-03T00:28:35.107Z,22.20
2018-06-03T00:31:03.386Z,22.20
2018-06-03T00:33:31.666Z,22.20
2018-06-03T00:36:11.953Z,22.10
2018-06-03T00:38:40.988Z,22.00
2018-06-03T00:41:09.264Z,22.00
2018-06-03T00:43:37.553Z,22.00
2018-06-03T00:46:06.589Z,21.90
2018-06-03T00:48:34.873Z,22.00
2018-06-03T00:51:03.139Z,21.90
2018-06-03T00:53:31.401Z,21.90
2018-06-03T00:55:59.657Z,21.90
2018-06-03T00:58:28.724Z,21.90
2018-06-03T01:00:57.008Z,21.90
2018-06-03T01:03:25.263Z,21.80
2018-06-03T01:05:53.524Z,21.90
2018-06-03T01:08:21.807Z,21.90
2018-06-03T01:10:50.104Z,21.90
2018-06-03T01:13:18.363Z,22.00
2018-06-03T01:15:46.695Z,22.00
2018-06-03T01:18:15.047Z,22.00
2018-06-03T01:20:43.805Z,22.00
2018-06-03T01:23:12.068Z,21.90
2018-06-03T01:25:41.078Z,21.90
2018-06-03T01:28:09.344Z,21.90
2018-06-03T01:30:37.656Z,21.90
2018-06-03T01:33:05.962Z,21.90
2018-06-03T01:35:34.210Z,21.90
2018-06-03T01:38:02.517Z,21.80
2018-06-03T01:40:30.794Z,21.90
2018-06-03T01:42:59.065Z,21.80
2018-06-03T01:45:27.309Z,21.90
2018-06-03T01:47:56.326Z,21.80
2018-06-03T01:50:24.601Z,21.80
2018-06-03T01:52:53.607Z,21.80
2018-06-03T01:55:21.884Z,21.80
2018-06-03T01:57:50.914Z,21.80
2018-06-03T02:00:19.177Z,21.80
2018-06-03T02:02:47.433Z,21.80
2018-06-03T02:05:16.476Z,21.80
2018-06-03T02:07:44.720Z,21.80
2018-06-03T02:10:12.985Z,21.90
2018-06-03T02:12:42.028Z,21.80
2018-06-03T02:15:10.304Z,21.80
2018-06-03T02:17:38.585Z,21.80
2018-06-03T02:20:06.844Z,21.80
2018-06-03T02:22:35.172Z,21.80
2018-06-03T02:25:03.413Z,21.80
2018-06-03T02:27:31.677Z,21.80
2018-06-03T02:29:59.940Z,21.80
2018-06-03T02:32:28.197Z,21.80
2018-06-03T02:34:56.487Z,21.80
2018-06-03T02:37:24.828Z,21.80
2018-06-03T02:39:53.100Z,21.70
2018-06-03T02:42:21.350Z,21.70
2018-06-03T02:44:50.380Z,21.70
2018-06-03T02:47:18.654Z,21.70
2018-06-03T02:49:46.939Z,21.70
2018-06-03T02:52:15.190Z,21.70
2018-06-03T02:54:44.213Z,21.70
2018-06-03T02:57:12.511Z,21.70
2018-06-03T02:59:40.769Z,21.70
2018-06-03T03:02:09.012Z,21.70
2018-06-03T03:04:38.060Z,21.60
2018-06-03T03:07:06.307Z,21.60
2018-06-03T03:09:35.366Z,21.50
2018-06-03T03:12:03.617Z,21.50
2018-06-03T03:14:31.868Z,21.50
2018-06-03T03:17:00.887Z,21.50
2018-06-03T03:19:29.154Z,21.50
2018-06-03T03:21:57.421Z,21.50
2018-06-03T03:24:26.432Z,21.50
2018-06-03T03:26:54.698Z,21.50
2018-06-03T03:29:23.816Z,21.40
2018-06-03T03:31:52.093Z,21.40
2018-06-03T03:34:21.116Z,21.40
2018-06-03T03:36:49.389Z,21.30
2018-06-03T03:39:17.658Z,21.40
2018-06-03T03:41:45.954Z,21.40
2018-06-03T03:44:14.221Z,21.40
2018-06-03T03:46:42.488Z,21.40
2018-06-03T03:49:11.547Z,21.40
2018-06-03T03:51:39.784Z,21.30
2018-06-03T03:54:08.058Z,21.30
2018-06-03T03:56:36.327Z,21.30
2018-06-03T03:59:05.364Z,21.30
2018-06-03T04:01:33.627Z,21.30
2018-06-03T04:04:02.656Z,21.30
2018-06-03T04:06:30.920Z,21.30
2018-06-03T04:08:59.217Z,21.30
2018-06-03T04:11:27.470Z,21.30
2018-06-03T04:13:55.730Z,21.30
2018-06-03T04:16:24.051Z,21.30
2018-06-03T04:18:52.333Z,21.20
2018-06-03T04:21:20.600Z,21.20
2018-06-03T04:23:48.864Z,21.20
2018-06-03T04:26:17.112Z,21.20
2018-06-03T04:28:45.356Z,21.20
2018-06-03T04:31:13.670Z,21.30
2018-06-03T04:33:41.911Z,21.30
2018-06-03T04:36:10.235Z,21.20
2018-06-03T04:38:38.479Z,21.20
2018-06-03T04:41:07.553Z,21.30
2018-06-03T04:43:35.837Z,21.20
2018-06-03T04:46:04.094Z,21.30
2018-06-03T04:48:33.127Z,21.30
2018-06-03T04:51:01.365Z,21.30
2018-06-03T04:53:30.400Z,21.20
2018-06-03T04:55:58.685Z,21.20
2018-06-03T04:58:26.972Z,21.30
2018-06-03T05:00:55.244Z,21.30
2018-06-03T05:03:23.516Z,21.30
2018-06-03T05:05:51.793Z,21.30
2018-06-03T05:08:20.812Z,21.40
2018-06-03T05:10:50.092Z,21.40
2018-06-03T05:13:18.366Z,21.30
2018-06-03T05:15:46.617Z,21.40
2018-06-03T05:18:15.663Z,21.50
2018-06-03T05:20:43.925Z,21.50
2018-06-03T05:23:12.188Z,21.60
2018-06-03T05:25:41.217Z,21.60
2018-06-03T05:28:09.488Z,21.60
2018-06-03T05:30:37.773Z,21.70
2018-06-03T05:33:06.039Z,21.70
2018-06-03T05:35:34.299Z,21.70
2018-06-03T05:38:03.336Z,21.70
2018-06-03T05:40:31.625Z,21.70
2018-06-03T05:43:00.436Z,21.80
2018-06-03T05:45:28.893Z,21.70
2018-06-03T05:47:57.156Z,21.80
2018-06-03T05:50:25.441Z,21.80
2018-06-03T05:52:53.730Z,21.80
2018-06-03T05:55:22.196Z,21.70
2018-06-03T05:57:50.492Z,21.80
2018-06-03T06:00:19.480Z,21.80
2018-06-03T06:02:47.736Z,21.80
2018-06-03T06:05:17.071Z,21.90
2018-06-03T06:07:46.097Z,21.80
2018-06-03T06:10:14.367Z,21.80
2018-06-03T06:12:42.653Z,21.80
2018-06-03T06:15:10.925Z,21.80
2018-06-03T06:17:39.296Z,21.80
2018-06-03T06:20:07.564Z,21.90
2018-06-03T06:22:35.832Z,21.90
2018-06-03T06:25:04.120Z,21.90
2018-06-03T06:27:32.401Z,21.90
2018-06-03T06:30:01.424Z,22.00
2018-06-03T06:32:29.688Z,21.90
2018-06-03T06:34:57.931Z,22.00
2018-06-03T06:37:26.210Z,22.00
2018-06-03T06:39:55.980Z,22.00
2018-06-03T06:42:24.240Z,22.00
2018-06-03T06:44:52.512Z,22.00
2018-06-03T06:47:21.516Z,22.00
2018-06-03T06:49:49.909Z,22.00
2018-06-03T06:52:18.946Z,21.90
2018-06-03T06:54:47.381Z,21.90
2018-06-03T06:57:15.688Z,22.00
2018-06-03T06:59:44.003Z,22.00
2018-06-03T07:02:12.313Z,22.00
2018-06-03T07:04:42.409Z,22.20
2018-06-03T07:07:10.694Z,22.10
2018-06-03T07:09:39.009Z,22.20
2018-06-03T07:12:08.052Z,22.40
2018-06-03T07:14:36.313Z,22.40
2018-06-03T07:17:04.664Z,22.40
2018-06-03T07:19:33.758Z,22.50
2018-06-03T07:22:02.070Z,22.40
2018-06-03T07:24:30.358Z,22.50
2018-06-03T07:26:58.666Z,22.50
2018-06-03T07:29:26.971Z,22.50
2018-06-03T07:31:55.289Z,22.50
2018-06-03T07:34:23.530Z,22.60
2018-06-03T07:36:51.796Z,22.70
2018-06-03T07:39:20.167Z,22.80
2018-06-03T07:41:48.475Z,22.80
2018-06-03T07:44:16.839Z,22.80
2018-06-03T07:46:45.164Z,22.90
2018-06-03T07:49:13.438Z,23.10
2018-06-03T07:51:41.700Z,23.10
2018-06-03T07:54:10.040Z,23.10
2018-06-03T07:56:38.326Z,23.10
2018-06-03T07:59:06.590Z,23.00
2018-06-03T08:01:34.856Z,22.90
2018-06-03T08:04:03.558Z,22.90
2018-06-03T08:06:31.939Z,22.90
2018-06-03T08:09:00.775Z,23.00
2018-06-03T08:11:29.228Z,23.10
2018-06-03T08:13:57.493Z,23.10
2018-06-03T08:16:25.795Z,23.20
2018-06-03T08:18:54.125Z,23.40
2018-06-03T08:21:22.456Z,23.40
2018-06-03T08:23:50.757Z,23.60
2018-06-03T08:26:19.317Z,23.80
2018-06-03T08:28:47.601Z,23.90
2018-06-03T08:31:15.872Z,24.10
2018-06-03T08:33:44.133Z,24.10
2018-06-03T08:36:13.175Z,23.80
2018-06-03T08:38:41.492Z,23.80
2018-06-03T08:41:09.781Z,23.80
2018-06-03T08:43:39.043Z,23.90
2018-06-03T08:46:07.781Z,23.80
2018-06-03T08:48:36.150Z,23.70
2018-06-03T08:51:05.913Z,23.40
2018-06-03T08:53:34.196Z,23.40
2018-06-03T08:56:02.463Z,23.30
2018-06-03T08:58:30.720Z,23.10
2018-06-03T09:00:59.777Z,23.00
2018-06-03T09:03:28.051Z,23.00
2018-06-03T09:05:56.360Z,23.00
2018-06-03T09:08:24.601Z,23.00
2018-06-03T09:10:52.876Z,22.90
2018-06-03T09:13:21.134Z,22.90
2018-06-03T09:15:49.591Z,23.00
2018-06-03T09:18:17.870Z,22.90
2018-06-03T09:20:46.124Z,22.80
2018-06-03T09:23:14.388Z,22.80
2018-06-03T09:25:42.629Z,22.90
2018-06-03T09:28:11.687Z,23.10
2018-06-03T09:30:39.993Z,23.10
2018-06-03T09:33:08.269Z,23.20
2018-06-03T09:35:36.524Z,23.40
2018-06-03T09:38:04.791Z,23.50
2018-06-03T09:40:33.073Z,23.60
2018-06-03T09:43:01.313Z,23.60
2018-06-03T09:45:31.360Z,23.70
2018-06-03T09:47:59.624Z,23.70
2018-06-03T09:50:27.891Z,23.70
2018-06-03T09:52:56.965Z,23.70
2018-06-03T09:55:25.212Z,23.70
2018-06-03T09:57:53.471Z,23.80
2018-06-03T10:00:21.765Z,23.80
2018-06-03T10:02:50.016Z,23.80
2018-06-03T10:05:19.052Z,23.50
2018-06-03T10:07:48.279Z,23.50
2018-06-03T10:10:16.558Z,23.50
2018-06-03T10:12:44.847Z,23.40
2018-06-03T10:15:13.110Z,23.50
2018-06-03T10:17:41.378Z,23.50
2018-06-03T10:20:09.757Z,23.40
2018-06-03T10:22:38.803Z,23.40
2018-06-03T10:25:07.103Z,23.40
2018-06-03T10:27:36.113Z,23.40
2018-06-03T10:30:04.380Z,23.40
2018-06-03T10:32:33.422Z,23.60
2018-06-03T10:35:01.666Z,23.60
2018-06-03T10:37:29.945Z,23.50
2018-06-03T10:39:59.014Z,23.60
2018-06-03T10:42:27.223Z,23.60
2018-06-03T10:44:55.508Z,23.70
2018-06-03T10:47:23.794Z,23.70
2018-06-03T10:52:27.419Z,23.60
2018-06-03T10:54:55.701Z,23.50
2018-06-03T10:57:23.970Z,23.60
2018-06-03T10:59:52.261Z,23.60
2018-06-03T11:02:20.507Z,23.70
2018-06-03T11:04:49.524Z,23.60
2018-06-03T11:07:17.835Z,23.60
2018-06-03T11:09:46.117Z,23.50
2018-06-03T11:12:14.414Z,23.50
2018-06-03T11:14:42.674Z,23.60
2018-06-03T11:17:10.949Z,23.60
2018-06-03T11:19:39.236Z,23.60
2018-06-03T11:22:07.663Z,23.60
2018-06-03T11:24:35.910Z,23.70
2018-06-03T11:27:04.182Z,23.70
2018-06-03T11:29:32.447Z,23.70
2018-06-03T11:32:00.696Z,23.80
2018-06-03T11:34:29.767Z,23.80
2018-06-03T11:36:58.061Z,23.80
2018-06-03T11:39:26.329Z,23.80
2018-06-03T11:41:54.629Z,23.80
2018-06-03T11:44:22.915Z,23.80
2018-06-03T11:46:51.991Z,23.90
2018-06-03T11:49:20.244Z,23.90
2018-06-03T11:51:48.550Z,24.10
2018-06-03T11:54:16.817Z,24.10
2018-06-03T11:56:56.885Z,24.20
2018-06-03T11:59:32.597Z,24.10
2018-06-03T12:02:00.958Z,24.10
2018-06-03T12:04:29.976Z,24.30
2018-06-03T12:06:58.244Z,24.20
2018-06-03T12:09:28.304Z,24.40
2018-06-03T12:11:56.604Z,24.30
2018-06-03T12:14:24.868Z,24.40
2018-06-03T12:16:55.889Z,24.30
2018-06-03T12:19:24.149Z,24.30
2018-06-03T12:21:52.399Z,24.40
2018-06-03T12:24:20.687Z,24.60
2018-06-03T12:26:48.973Z,24.90
2018-06-03T12:29:18.015Z,25.30
2018-06-03T12:31:46.273Z,25.30
2018-06-03T12:34:14.534Z,25.40
2018-06-03T12:36:43.608Z,25.60
2018-06-03T12:39:11.851Z,25.50
2018-06-03T12:41:40.104Z,25.30
2018-06-03T12:44:08.425Z,25.10
2018-06-03T12:46:36.806Z,24.90
2018-06-03T12:49:05.098Z,24.80
2018-06-03T12:51:33.380Z,24.60
2018-06-03T12:54:01.630Z,24.50
2018-06-03T12:56:30.054Z,24.40
2018-06-03T12:58:58.312Z,24.40
2018-06-03T13:01:26.657Z,24.40
2018-06-03T13:03:55.729Z,24.20
2018-06-03T13:06:24.047Z,24.30
2018-06-03T13:08:52.272Z,24.20
2018-06-03T13:11:20.572Z,24.20
2018-06-03T13:13:48.868Z,24.30
2018-06-03T13:16:17.896Z,24.20
2018-06-03T13:18:47.025Z,24.30
2018-06-03T13:21:15.326Z,24.30
2018-06-03T13:23:43.580Z,24.30
2018-06-03T13:26:11.859Z,24.40
2018-06-03T13:28:40.125Z,24.60
2018-06-03T13:31:08.407Z,24.80
2018-06-03T13:33:36.681Z,25.10
2018-06-03T13:36:04.952Z,25.10
2018-06-03T13:38:33.241Z,24.90
2018-06-03T13:41:01.500Z,24.80
2018-06-03T13:43:30.551Z,25.20
2018-06-03T13:45:58.854Z,25.20
2018-06-03T13:48:27.138Z,25.40
2018-06-03T13:50:55.402Z,25.50
2018-06-03T13:53:23.693Z,25.60
2018-06-03T13:55:52.288Z,25.60
2018-06-03T13:58:20.603Z,25.70
2018-06-03T14:00:49.625Z,25.40
2018-06-03T14:03:17.892Z,25.40
2018-06-03T14:05:46.217Z,25.30
2018-06-03T14:08:14.590Z,25.30
2018-06-03T14:10:42.864Z,25.30
2018-06-03T14:13:11.128Z,25.30
2018-06-03T14:15:39.440Z,25.30
2018-06-03T14:18:07.732Z,25.30
2018-06-03T14:20:36.122Z,25.40
2018-06-03T14:23:04.609Z,25.60
2018-06-03T14:25:33.660Z,25.90
2018-06-03T14:28:01.933Z,25.90
2018-06-03T14:30:30.207Z,26.00
2018-06-03T14:32:58.790Z,26.10
2018-06-03T14:35:27.785Z,26.00
2018-06-03T14:37:56.050Z,26.00
2018-06-03T14:40:24.374Z,26.10
2018-06-03T14:42:52.638Z,26.20
2018-06-03T14:45:20.924Z,26.10
2018-06-03T14:47:49.195Z,26.00
2018-06-03T14:50:17.459Z,26.00
2018-06-03T14:52:45.740Z,26.00
2018-06-03T14:55:14.776Z,25.70
2018-06-03T14:57:43.059Z,25.70
2018-06-03T15:00:12.343Z,25.70
2018-06-03T15:02:40.826Z,25.70
2018-06-03T15:05:09.408Z,25.80
2018-06-03T15:07:39.482Z,25.90
2018-06-03T15:10:41.401Z,26.00
2018-06-03T15:13:10.616Z,26.00
2018-06-03T15:15:39.942Z,26.00
2018-06-03T15:18:09.286Z,26.20
2018-06-03T15:20:39.750Z,26.10
2018-06-03T15:23:09.947Z,26.00
2018-06-03T15:25:39.446Z,26.00
2018-06-03T15:28:08.752Z,26.00
2018-06-03T15:30:38.031Z,26.00
2018-06-03T15:35:36.204Z,26.20
2018-06-03T15:38:05.553Z,26.30
2018-06-03T15:40:35.441Z,26.10
2018-06-03T15:43:04.672Z,26.00
2018-06-03T15:45:34.979Z,25.90
2018-06-03T15:48:04.397Z,25.90
2018-06-03T15:50:33.674Z,26.00
2018-06-03T15:53:02.966Z,26.00
2018-06-03T15:55:32.441Z,26.00
2018-06-03T15:58:02.503Z,26.00
2018-06-03T16:00:31.846Z,25.90
2018-06-03T16:03:01.235Z,25.80
2018-06-03T16:05:30.467Z,25.80
2018-06-03T16:07:59.925Z,25.80
2018-06-03T16:10:29.145Z,25.70
2018-06-03T16:12:58.376Z,25.60
2018-06-03T16:15:28.820Z,25.60
2018-06-03T16:20:27.726Z,25.60
2018-06-03T16:22:56.993Z,25.50
2018-06-03T16:25:26.287Z,25.60
2018-06-03T16:27:55.687Z,25.50
2018-06-03T16:30:25.096Z,25.50
2018-06-03T16:32:55.542Z,25.50
2018-06-03T16:35:25.356Z,25.50
2018-06-03T16:37:54.658Z,25.50
2018-06-03T16:40:24.015Z,25.40
2018-06-03T16:42:53.703Z,25.50
2018-06-03T16:45:23.009Z,25.60
2018-06-03T16:47:52.294Z,25.70
2018-06-03T16:50:21.566Z,25.80
2018-06-03T16:52:51.420Z,25.90
2018-06-03T16:55:20.733Z,26.00
2018-06-03T16:57:50.457Z,25.90
2018-06-03T17:00:20.667Z,25.90
2018-06-03T17:02:50.616Z,26.00
2018-06-03T17:05:19.925Z,26.00
2018-06-03T17:07:49.189Z,25.90
2018-06-03T17:10:18.530Z,25.90
2018-06-03T17:12:48.485Z,25.80
2018-06-03T17:15:17.731Z,25.80
2018-06-03T17:17:47.184Z,25.80
2018-06-03T17:20:16.499Z,25.80
2018-06-03T17:22:46.343Z,25.80
2018-06-03T17:25:15.709Z,25.90
2018-06-03T17:27:45.613Z,25.90
2018-06-03T17:30:14.952Z,25.90
2018-06-03T17:32:44.253Z,25.80
2018-06-03T17:35:13.632Z,25.80
2018-06-03T17:37:43.905Z,25.80
2018-06-03T17:40:13.463Z,25.80
2018-06-03T17:42:43.108Z,25.80
2018-06-03T17:45:13.269Z,25.80
2018-06-03T17:47:42.672Z,25.80
2018-06-03T17:50:11.951Z,25.70
2018-06-03T17:55:10.093Z,25.60
2018-06-03T17:57:39.334Z,25.60
2018-06-03T18:00:08.692Z,25.60
2018-06-03T18:02:38.113Z,25.70
2018-06-03T18:05:07.397Z,25.80
2018-06-03T18:07:37.739Z,25.80
2018-06-03T18:10:07.004Z,25.90
2018-06-03T18:12:36.401Z,25.90
2018-06-03T18:15:05.644Z,26.00
2018-06-03T18:17:35.596Z,26.00
2018-06-03T18:20:05.181Z,26.00
2018-06-03T18:22:34.577Z,25.90
2018-06-03T18:27:32.594Z,25.80
2018-06-03T18:30:03.546Z,25.80
2018-06-03T18:32:33.046Z,25.80
2018-06-03T18:35:02.309Z,25.80
2018-06-03T18:37:31.617Z,25.80
2018-06-03T18:40:00.964Z,25.80
2018-06-03T18:42:31.024Z,25.80
2018-06-03T18:45:01.697Z,25.70
2018-06-03T18:47:31.061Z,25.80
2018-06-03T18:50:00.281Z,25.90
2018-06-03T18:52:29.679Z,26.00
2018-06-03T18:54:59.020Z,26.00
2018-06-03T18:57:29.210Z,26.10
2018-06-03T19:00:00.430Z,26.20
2018-06-03T19:02:29.800Z,26.20
2018-06-03T19:04:59.008Z,26.10
2018-06-03T19:07:28.367Z,26.10
2018-06-03T19:09:57.635Z,26.10
2018-06-03T19:12:27.225Z,26.00
2018-06-03T19:14:56.705Z,26.00
2018-06-03T19:17:27.317Z,26.10
2018-06-03T19:19:56.566Z,26.10
2018-06-03T19:22:26.590Z,26.10
2018-06-03T19:24:57.928Z,26.00
2018-06-03T19:27:27.192Z,26.00
2018-06-03T19:29:56.450Z,25.90
2018-06-03T19:32:26.941Z,25.80
2018-06-03T19:34:58.511Z,25.70
2018-06-03T19:37:27.753Z,25.70
2018-06-03T19:39:57.116Z,25.60
2018-06-03T19:42:26.399Z,25.60
2018-06-03T19:44:55.640Z,25.60
2018-06-03T19:47:25.153Z,25.50
2018-06-03T19:49:54.387Z,25.50
2018-06-03T19:52:23.660Z,25.40
2018-06-03T19:54:52.910Z,25.30
2018-06-03T19:57:23.007Z,25.30
2018-06-03T19:59:52.280Z,25.30
2018-06-03T20:02:21.545Z,25.20
2018-06-03T20:04:50.811Z,25.20
2018-06-03T20:07:20.436Z,25.10
2018-06-03T20:09:49.690Z,25.20
2018-06-03T20:12:19.414Z,25.10
2018-06-03T20:14:48.777Z,25.10
2018-06-03T20:17:18.818Z,25.00
2018-06-03T20:19:48.126Z,24.90
2018-06-03T20:22:17.425Z,24.80
2018-06-03T20:24:46.820Z,24.70
2018-06-03T20:27:16.154Z,24.60
2018-06-03T20:29:45.563Z,24.50
2018-06-03T20:32:15.626Z,24.40
2018-06-03T20:34:44.988Z,24.40
2018-06-03T20:37:14.287Z,24.40
2018-06-03T20:39:43.658Z,24.40
2018-06-03T20:42:13.834Z,24.40
2018-06-03T20:44:44.251Z,24.40
2018-06-03T20:47:14.453Z,24.50
2018-06-03T20:49:43.727Z,24.50
2018-06-03T20:52:12.961Z,24.40
2018-06-03T20:54:42.448Z,24.40
2018-06-03T20:57:12.445Z,24.30
2018-06-03T20:59:41.859Z,24.30
2018-06-03T21:02:11.245Z,24.30
2018-06-03T21:04:40.813Z,24.30
2018-06-03T21:07:10.155Z,24.30
2018-06-03T21:09:39.417Z,24.20
2018-06-03T21:12:08.686Z,24.10
2018-06-03T21:14:37.956Z,24.10
2018-06-03T21:17:07.334Z,24.00
2018-06-03T21:19:36.611Z,24.00
2018-06-03T21:22:06.321Z,24.00
2018-06-03T21:24:35.721Z,24.00
2018-06-03T21:27:05.725Z,23.90
2018-06-03T21:29:35.318Z,24.00
2018-06-03T21:32:04.607Z,23.90
2018-06-03T21:34:34.609Z,23.80
2018-06-03T21:37:05.003Z,23.80
2018-06-03T21:39:34.253Z,23.60
2018-06-03T21:42:07.676Z,23.60
2018-06-03T21:44:36.997Z,23.60
2018-06-03T21:47:06.422Z,23.60
2018-06-03T21:49:35.648Z,23.50
2018-06-03T21:54:33.832Z,23.40
2018-06-03T21:57:03.092Z,23.30
2018-06-03T21:59:32.455Z,23.30
2018-06-03T22:02:01.768Z,23.20
2018-06-03T22:04:30.992Z,23.20
2018-06-03T22:07:01.042Z,23.10
2018-06-03T22:09:30.286Z,23.10
2018-06-03T22:11:59.989Z,23.00
2018-06-03T22:14:29.226Z,22.90
2018-06-03T22:16:58.673Z,22.90
2018-06-03T22:19:28.013Z,22.80
2018-06-03T22:21:57.329Z,22.70
2018-06-03T22:24:26.641Z,22.70
2018-06-03T22:26:57.141Z,22.70
2018-06-03T22:29:27.824Z,22.70
2018-06-03T22:31:57.991Z,22.60
2018-06-03T22:34:28.549Z,22.70
2018-06-03T22:36:57.847Z,22.70
2018-06-03T22:39:27.189Z,22.70
2018-06-03T22:41:56.439Z,22.70
2018-06-03T22:44:25.844Z,22.70
2018-06-03T22:46:55.114Z,22.60
2018-06-03T22:49:25.075Z,22.70
2018-06-03T22:57:06.955Z,22.60
2018-06-03T22:59:36.335Z,22.70
2018-06-03T23:02:05.557Z,22.70
2018-06-03T23:04:34.787Z,22.70
2018-06-03T23:07:04.059Z,22.70
2018-06-03T23:09:33.564Z,22.70
2018-06-03T23:12:02.858Z,22.70
2018-06-03T23:14:32.076Z,22.60
2018-06-03T23:17:01.350Z,22.50
2018-06-03T23:19:30.616Z,22.50
2018-06-03T23:21:59.874Z,22.40
2018-06-03T23:24:29.073Z,22.40
2018-06-03T23:26:58.273Z,22.30
2018-06-03T23:29:27.529Z,22.30
2018-06-03T23:31:57.214Z,22.30
2018-06-03T23:34:26.448Z,22.30
2018-06-03T23:36:55.848Z,22.20
2018-06-03T23:39:25.091Z,22.10
2018-06-03T23:41:54.412Z,22.00
2018-06-03T23:44:23.659Z,22.10
2018-06-03T23:46:53.037Z,22.10
2018-06-03T23:49:22.227Z,22.10
2018-06-03T23:51:51.457Z,22.00
2018-06-03T23:54:20.742Z,21.90
2018-06-03T23:56:50.090Z,21.90
2018-06-03T23:59:19.310Z,21.90
